Impacts METAR Board
IDs:

KMDW - Chicago/Midway Intl, IL, US

Updated at: 2300 UTC 02 Oct 2022
Potential Impact None Slight Moderate High
Time 02/11Z 02/12Z 02/13Z 02/14Z 02/15Z 02/16Z 02/17Z 02/18Z 02/19Z 02/20Z 02/21Z 02/22Z 02/23Z
Temp60 61 61 62 63 65 65 67 68 67 66 64 62
Dewpt53 53 53 52 53 53 52 52 51 49 49 48 47
Altim30.28 30.30 30.32 30.33 30.35 30.37 30.38 30.37 30.35 30.34 30.34 30.34 30.34
VIS10 10 10 10 10 10 10 10 10 10 10 10 10
CIG14 15 16 19 21 21 21 21 -- -- -- -- --
CoverBKNBKNBKNBKNBKNBKNBKNBKNFEWFEWFEWFEWFEW
FltCatMVFRMVFRMVFRMVFRMVFRMVFRMVFRMVFRVFRVFRVFRVFRVFR
WX--------------------------
WDir60705060705010401020205020
WSpd8 9 11 9 10 10 11 12 12 12 13 14 12
WGst-- -- -- -- -- -- -- -- -- -- -- -- --
Raw hourly METARs
KMDW 021053Z 06008KT 10SM BKN014 16/12 A3028 RMK AO2 SLP251 T01560117
KMDW 021153Z 07009KT 10SM BKN015 16/12 A3030 RMK AO2 SLP257 T01610117 10167 20144 53012
KMDW 021253Z 05011KT 10SM BKN016 16/12 A3032 RMK AO2 SLP265 T01610117
KMDW 021353Z 06009KT 10SM BKN019 17/11 A3033 RMK AO2 SLP270 T01670111
KMDW 021453Z 07010KT 10SM BKN021 17/12 A3035 RMK AO2 SLP276 T01720117 51018
KMDW 021553Z 05010KT 10SM BKN021 18/12 A3037 RMK AO2 SLP280 T01830117
KMDW 021653Z 01011KT 10SM BKN021 18/11 A3038 RMK AO2 SLP283 T01830111
KMDW 021753Z 04012KT 10SM BKN021 19/11 A3037 RMK AO2 SLP281 T01940111 10194 20161 50006
KMDW 021853Z 01012KT 10SM FEW021 20/11 A3035 RMK AO2 SLP274 T02000106
KMDW 021953Z 02012KT 10SM FEW021 19/09 A3034 RMK AO2 SLP270 T01940094
KMDW 022053Z 02013KT 10SM FEW021 19/09 A3034 RMK AO2 SLP270 T01890094 56010
KMDW 022153Z 05014KT 10SM FEW021 18/09 A3034 RMK AO2 SLP270 T01780089
KMDW 022253Z 02012KT 10SM FEW021 17/08 A3034 RMK AO2 SLP273 T01670083



Page loaded:  23:15 UTC  |   04:15 PM Pacific  |   05:15 PM Mountain  |   06:15 PM Central  |   07:15 PM Eastern

 

ADVISORIES

FORECASTS

FORECASTS

OBSERVATIONS

USER TOOLS

ABOUT US